Terminal Aerodrome Forecast
Issued by NWS

Home | Current Version | Previous Version | Graphics & Text | Print | Product List | Glossary On
Versions: 1 2 3 4 5 6 7 8 9 10 11 12 13 14 15 16 17 18 19 20 21 22 23 24 25 26 27 28 29 30 31 32 33 34
251
FTUS43 KGRB 280520
TAFRHI
TAF
KRHI 280520Z 2806/2906 26010KT P6SM OVC015
      TEMPO 2806/2808 5SM -FZDZSN BR BKN008
     FM281000 26008KT P6SM SCT015 OVC025
     FM281600 26008KT P6SM BKN035
     FM282200 31006KT P6SM BKN040
     FM290200 36004KT P6SM BKN040 BKN100=

USA.gov is the U.S. government's official web portal to all federal, state and local government web resources and services.